TimePDT,TemperatureF,Dew PointF,Humidity,Sea Level PressureIn,VisibilityMPH,Wind Direction,Wind SpeedMPH,Gust SpeedMPH,PrecipitationIn,Events,Conditions,WindDirDegrees,DateUTC
12:35 AM,55.4,51.8,88,30.06,10.0,WNW,5.8,-,N/A,,Scattered Clouds,290,2012-10-30 07:35:00
12:56 AM,55.0,52.0,89,30.06,10.0,WNW,5.8,-,N/A,,Partly Cloudy,290,2012-10-30 07:56:00
1:56 AM,55.0,52.0,89,30.06,9.0,WNW,10.4,-,N/A,,Scattered Clouds,300,2012-10-30 08:56:00
2:56 AM,54.0,51.1,90,30.06,10.0,WNW,8.1,-,N/A,,Partly Cloudy,290,2012-10-30 09:56:00
3:56 AM,53.1,50.0,89,30.05,9.0,West,8.1,-,N/A,,Partly Cloudy,280,2012-10-30 10:56:00
4:40 AM,53.6,50.0,88,30.04,9.0,West,3.5,-,N/A,,Mostly Cloudy,260,2012-10-30 11:40:00
4:56 AM,53.6,48.2,82,30.04,9.0,Calm,Calm,-,N/A,,Mostly Cloudy,0,2012-10-30 11:56:00
5:56 AM,53.1,50.0,89,30.07,3.0,West,9.2,-,N/A,,Overcast,280,2012-10-30 12:56:00
6:54 AM,55.4,51.8,88,30.06,10.0,West,4.6,-,N/A,,Mostly Cloudy,270,2012-10-30 13:54:00
6:56 AM,55.0,52.0,89,30.07,10.0,West,3.5,-,N/A,,Mostly Cloudy,260,2012-10-30 13:56:00
7:56 AM,55.0,51.1,86,30.09,10.0,WNW,11.5,-,N/A,,Mostly Cloudy,290,2012-10-30 14:56:00
8:56 AM,55.9,53.1,90,30.10,10.0,WSW,4.6,-,N/A,,Mostly Cloudy,250,2012-10-30 15:56:00
9:56 AM,57.2,51.8,82,30.09,10.0,SSE,4.6,-,N/A,,Overcast,150,2012-10-30 16:56:00
10:56 AM,57.9,53.1,84,30.08,10.0,SE,4.6,-,N/A,,Overcast,130,2012-10-30 17:56:00
11:56 AM,59.0,53.1,81,30.07,10.0,East,4.6,-,N/A,,Mostly Cloudy,90,2012-10-30 18:56:00
12:06 PM,60.8,53.6,77,30.06,10.0,NE,3.5,-,N/A,,Scattered Clouds,40,2012-10-30 19:06:00
12:56 PM,61.0,54.0,78,30.05,10.0,NE,5.8,-,N/A,,Partly Cloudy,50,2012-10-30 19:56:00
1:56 PM,61.0,54.0,78,30.03,10.0,ENE,4.6,-,N/A,,Partly Cloudy,60,2012-10-30 20:56:00
2:56 PM,62.1,55.0,78,30.01,10.0,NE,4.6,-,N/A,,Scattered Clouds,50,2012-10-30 21:56:00
3:56 PM,63.0,53.1,70,30.00,10.0,West,18.4,-,N/A,,Scattered Clouds,280,2012-10-30 22:56:00
4:56 PM,61.0,53.1,75,30.00,10.0,West,20.7,-,N/A,,Scattered Clouds,280,2012-10-30 23:56:00
5:56 PM,59.0,54.0,83,29.98,10.0,West,15.0,-,N/A,,Scattered Clouds,280,2012-10-31 00:56:00
6:56 PM,57.9,53.1,84,29.99,10.0,WNW,10.4,-,N/A,,Scattered Clouds,290,2012-10-31 01:56:00
7:56 PM,57.9,53.1,84,29.99,10.0,WNW,9.2,-,N/A,,Scattered Clouds,290,2012-10-31 02:56:00
8:56 PM,57.9,53.1,84,30.00,10.0,WNW,5.8,-,N/A,,Mostly Cloudy,300,2012-10-31 03:56:00
9:56 PM,57.9,53.1,84,30.01,10.0,West,5.8,-,N/A,,Mostly Cloudy,280,2012-10-31 04:56:00
10:41 PM,57.2,53.6,88,30.01,10.0,WNW,8.1,-,N/A,,Mostly Cloudy,290,2012-10-31 05:41:00
10:56 PM,57.9,54.0,87,30.01,10.0,WNW,8.1,-,N/A,,Mostly Cloudy,290,2012-10-31 05:56:00
11:56 PM,57.9,53.1,84,30.00,10.0,SSW,4.6,-,N/A,,Mostly Cloudy,210,2012-10-31 06:56:00